Pagina principale
METAR-TAF:

METAR-TAF

Aeroporti :

Aeroporto di Foggia

Foggia, Italia

latitudine: 41-25-58N, longitudine: 015-32-06E, altezza: 81 m

Osservazione

Il bollettino è stato emesso 6 ore e 41 minuti fa, alle 14:50 UTC
Vento 3 kt da est/sud-est, variando fra est/nord-est e sud-est
Temperature 12°C
Umidità 67%
Pressione 1018 hPa
Visibilità 10 km o più
Poco nuvoloso ad un'altezza di 2000 ft
Nuvoloso ad un'altezza di 4000 ft

METAR: LIBF 171450Z 11003KT 070V130 9999 FEW020 BKN040 12/06 Q1018

Ora: 22:31 (21:31 UTC)


TAF: mancante

Osservazioni e previsioni meteorologiche di più di 4000 aeroporti (messaggi METAR e TAF).

Le stazioni disponibili sono rappresentate dai dischi gialli e rossi sulla carta.

Puntare il mouse per vedere il nome della stazione.

Clicca sopra per visualizzare le osservazioni e previsioni meteorologiche.

Per cambiare la mappa : fare clic sui pulsanti verdi con una croce nera per ingrandire, il pulsante verde con un trattino per diminuire, o sulla freccia verde per le mappe adiacenti.


METAR-TAF: